sensor_id;sensor_type;location;lat;lon;timestamp;P1;durP1;ratioP1;P2;durP2;ratioP2
68010;SDS011;54794;48.348;7.878;2024-03-17T00:01:07;0.85;;;0.50;;
68010;SDS011;54794;48.348;7.878;2024-03-17T00:03:33;0.82;;;0.50;;
68010;SDS011;54794;48.348;7.878;2024-03-17T00:06:00;1.35;;;0.50;;
68010;SDS011;54794;48.348;7.878;2024-03-17T00:08:26;0.40;;;0.40;;
68010;SDS011;54794;48.348;7.878;2024-03-17T00:10:53;0.52;;;0.30;;
68010;SDS011;54794;48.348;7.878;2024-03-17T00:13:23;0.47;;;0.30;;
68010;SDS011;54794;48.348;7.878;2024-03-17T00:15:49;0.60;;;0.45;;
68010;SDS011;54794;48.348;7.878;2024-03-17T00:18:16;0.83;;;0.50;;
68010;SDS011;54794;48.348;7.878;2024-03-17T00:20:43;1.02;;;0.45;;
68010;SDS011;54794;48.348;7.878;2024-03-17T00:23:09;0.47;;;0.37;;
68010;SDS011;54794;48.348;7.878;2024-03-17T00:25:37;0.57;;;0.40;;
68010;SDS011;54794;48.348;7.878;2024-03-17T00:28:04;0.52;;;0.40;;
68010;SDS011;54794;48.348;7.878;2024-03-17T00:30:30;0.67;;;0.50;;
68010;SDS011;54794;48.348;7.878;2024-03-17T00:32:59;1.48;;;0.50;;
68010;SDS011;54794;48.348;7.878;2024-03-17T00:35:25;1.10;;;0.60;;
68010;SDS011;54794;48.348;7.878;2024-03-17T00:37:52;1.17;;;0.40;;
68010;SDS011;54794;48.348;7.878;2024-03-17T00:40:19;1.05;;;0.50;;
68010;SDS011;54794;48.348;7.878;2024-03-17T00:42:46;0.60;;;0.40;;
68010;SDS011;54794;48.348;7.878;2024-03-17T00:45:12;1.77;;;0.70;;
68010;SDS011;54794;48.348;7.878;2024-03-17T00:47:39;0.98;;;0.40;;
68010;SDS011;54794;48.348;7.878;2024-03-17T00:50:05;0.77;;;0.52;;
68010;SDS011;54794;48.348;7.878;2024-03-17T00:52:33;0.65;;;0.45;;
68010;SDS011;54794;48.348;7.878;2024-03-17T00:55:00;1.17;;;0.50;;
68010;SDS011;54794;48.348;7.878;2024-03-17T00:57:26;1.15;;;0.50;;
68010;SDS011;54794;48.348;7.878;2024-03-17T00:59:52;1.25;;;0.57;;
68010;SDS011;54794;48.348;7.878;2024-03-17T01:02:18;1.10;;;0.65;;
68010;SDS011;54794;48.348;7.878;2024-03-17T01:04:46;2.83;;;0.60;;
68010;SDS011;54794;48.348;7.878;2024-03-17T01:07:13;1.67;;;0.80;;
68010;SDS011;54794;48.348;7.878;2024-03-17T01:09:39;1.60;;;0.55;;
68010;SDS011;54794;48.348;7.878;2024-03-17T01:12:05;1.35;;;0.75;;
68010;SDS011;54794;48.348;7.878;2024-03-17T01:14:34;1.65;;;0.75;;
68010;SDS011;54794;48.348;7.878;2024-03-17T01:17:00;1.88;;;0.80;;
68010;SDS011;54794;48.348;7.878;2024-03-17T01:19:30;3.92;;;1.00;;
68010;SDS011;54794;48.348;7.878;2024-03-17T01:21:57;1.77;;;0.80;;
68010;SDS011;54794;48.348;7.878;2024-03-17T01:24:25;2.83;;;1.15;;
68010;SDS011;54794;48.348;7.878;2024-03-17T01:26:59;2.63;;;1.50;;
68010;SDS011;54794;48.348;7.878;2024-03-17T01:29:26;2.75;;;1.20;;
68010;SDS011;54794;48.348;7.878;2024-03-17T01:31:53;1.88;;;0.95;;
68010;SDS011;54794;48.348;7.878;2024-03-17T01:34:19;2.08;;;0.95;;
68010;SDS011;54794;48.348;7.878;2024-03-17T01:36:47;1.60;;;0.88;;
68010;SDS011;54794;48.348;7.878;2024-03-17T01:39:13;2.22;;;1.00;;
68010;SDS011;54794;48.348;7.878;2024-03-17T01:41:41;1.67;;;0.93;;
68010;SDS011;54794;48.348;7.878;2024-03-17T01:44:07;1.48;;;1.00;;
68010;SDS011;54794;48.348;7.878;2024-03-17T01:46:47;2.40;;;1.17;;
68010;SDS011;54794;48.348;7.878;2024-03-17T01:49:13;1.95;;;0.90;;
68010;SDS011;54794;48.348;7.878;2024-03-17T01:51:39;1.88;;;1.05;;
68010;SDS011;54794;48.348;7.878;2024-03-17T01:54:06;2.03;;;1.05;;
68010;SDS011;54794;48.348;7.878;2024-03-17T01:56:33;1.17;;;0.73;;
68010;SDS011;54794;48.348;7.878;2024-03-17T01:59:00;0.80;;;0.60;;
68010;SDS011;54794;48.348;7.878;2024-03-17T02:01:27;1.23;;;0.50;;
68010;SDS011;54794;48.348;7.878;2024-03-17T02:03:53;0.43;;;0.40;;
68010;SDS011;54794;48.348;7.878;2024-03-17T02:06:19;0.60;;;0.40;;
68010;SDS011;54794;48.348;7.878;2024-03-17T02:08:52;0.50;;;0.30;;
68010;SDS011;54794;48.348;7.878;2024-03-17T02:11:30;0.57;;;0.38;;
68010;SDS011;54794;48.348;7.878;2024-03-17T02:16:26;1.30;;;0.47;;
68010;SDS011;54794;48.348;7.878;2024-03-17T02:18:55;1.60;;;0.70;;
68010;SDS011;54794;48.348;7.878;2024-03-17T02:21:22;1.27;;;0.90;;
68010;SDS011;54794;48.348;7.878;2024-03-17T02:23:51;1.27;;;0.95;;
68010;SDS011;54794;48.348;7.878;2024-03-17T02:26:17;3.70;;;1.20;;
68010;SDS011;54794;48.348;7.878;2024-03-17T02:28:44;2.20;;;1.17;;
68010;SDS011;54794;48.348;7.878;2024-03-17T02:31:13;2.38;;;1.02;;
68010;SDS011;54794;48.348;7.878;2024-03-17T02:33:41;1.63;;;1.05;;
68010;SDS011;54794;48.348;7.878;2024-03-17T02:36:09;2.33;;;1.50;;
68010;SDS011;54794;48.348;7.878;2024-03-17T02:38:37;1.08;;;0.88;;
68010;SDS011;54794;48.348;7.878;2024-03-17T02:41:25;1.80;;;1.00;;
68010;SDS011;54794;48.348;7.878;2024-03-17T02:43:52;1.77;;;1.10;;
68010;SDS011;54794;48.348;7.878;2024-03-17T02:46:18;3.17;;;1.20;;
68010;SDS011;54794;48.348;7.878;2024-03-17T02:48:51;1.00;;;0.90;;
68010;SDS011;54794;48.348;7.878;2024-03-17T02:51:19;1.20;;;0.93;;
68010;SDS011;54794;48.348;7.878;2024-03-17T02:53:48;2.38;;;1.33;;
68010;SDS011;54794;48.348;7.878;2024-03-17T02:56:15;1.98;;;1.10;;
68010;SDS011;54794;48.348;7.878;2024-03-17T02:58:43;1.40;;;1.02;;
68010;SDS011;54794;48.348;7.878;2024-03-17T03:01:11;1.83;;;1.15;;
68010;SDS011;54794;48.348;7.878;2024-03-17T03:03:38;1.93;;;1.00;;
68010;SDS011;54794;48.348;7.878;2024-03-17T03:06:04;1.42;;;0.93;;
68010;SDS011;54794;48.348;7.878;2024-03-17T03:08:40;2.08;;;1.20;;
68010;SDS011;54794;48.348;7.878;2024-03-17T03:11:07;1.67;;;1.05;;
68010;SDS011;54794;48.348;7.878;2024-03-17T03:13:38;2.22;;;1.20;;
68010;SDS011;54794;48.348;7.878;2024-03-17T03:18:33;1.30;;;0.70;;
68010;SDS011;54794;48.348;7.878;2024-03-17T03:21:00;1.65;;;0.95;;
68010;SDS011;54794;48.348;7.878;2024-03-17T03:23:26;1.23;;;0.80;;
68010;SDS011;54794;48.348;7.878;2024-03-17T03:25:56;1.58;;;0.70;;
68010;SDS011;54794;48.348;7.878;2024-03-17T03:28:29;1.52;;;0.60;;
68010;SDS011;54794;48.348;7.878;2024-03-17T03:30:59;1.23;;;0.70;;
68010;SDS011;54794;48.348;7.878;2024-03-17T03:33:25;1.35;;;0.70;;
68010;SDS011;54794;48.348;7.878;2024-03-17T03:35:52;2.00;;;1.00;;
68010;SDS011;54794;48.348;7.878;2024-03-17T03:38:18;1.02;;;0.57;;
68010;SDS011;54794;48.348;7.878;2024-03-17T03:40:45;0.82;;;0.57;;
68010;SDS011;54794;48.348;7.878;2024-03-17T03:43:13;1.60;;;0.60;;
68010;SDS011;54794;48.348;7.878;2024-03-17T03:45:39;0.57;;;0.43;;
68010;SDS011;54794;48.348;7.878;2024-03-17T03:48:07;0.80;;;0.60;;
68010;SDS011;54794;48.348;7.878;2024-03-17T03:50:39;0.85;;;0.50;;
68010;SDS011;54794;48.348;7.878;2024-03-17T03:53:05;1.15;;;0.38;;
68010;SDS011;54794;48.348;7.878;2024-03-17T03:55:31;0.68;;;0.40;;
68010;SDS011;54794;48.348;7.878;2024-03-17T03:57:57;0.70;;;0.40;;
68010;SDS011;54794;48.348;7.878;2024-03-17T04:00:23;1.10;;;0.30;;
68010;SDS011;54794;48.348;7.878;2024-03-17T04:02:51;0.70;;;0.40;;
68010;SDS011;54794;48.348;7.878;2024-03-17T04:05:18;0.82;;;0.40;;
68010;SDS011;54794;48.348;7.878;2024-03-17T04:07:45;0.60;;;0.40;;
68010;SDS011;54794;48.348;7.878;2024-03-17T04:10:13;1.10;;;0.40;;
68010;SDS011;54794;48.348;7.878;2024-03-17T04:15:07;0.82;;;0.40;;
68010;SDS011;54794;48.348;7.878;2024-03-17T04:17:35;0.70;;;0.50;;
68010;SDS011;54794;48.348;7.878;2024-03-17T04:20:02;0.77;;;0.50;;
68010;SDS011;54794;48.348;7.878;2024-03-17T04:22:33;0.60;;;0.45;;
68010;SDS011;54794;48.348;7.878;2024-03-17T04:25:00;0.50;;;0.37;;
68010;SDS011;54794;48.348;7.878;2024-03-17T04:27:26;1.13;;;0.60;;
68010;SDS011;54794;48.348;7.878;2024-03-17T04:29:54;0.98;;;0.40;;
68010;SDS011;54794;48.348;7.878;2024-03-17T04:32:22;2.22;;;0.40;;
68010;SDS011;54794;48.348;7.878;2024-03-17T04:34:49;2.85;;;0.50;;
68010;SDS011;54794;48.348;7.878;2024-03-17T04:37:15;0.55;;;0.35;;
68010;SDS011;54794;48.348;7.878;2024-03-17T04:39:43;0.93;;;0.40;;
68010;SDS011;54794;48.348;7.878;2024-03-17T04:42:14;0.50;;;0.30;;
68010;SDS011;54794;48.348;7.878;2024-03-17T04:44:44;0.60;;;0.40;;
68010;SDS011;54794;48.348;7.878;2024-03-17T04:47:11;1.65;;;0.50;;
68010;SDS011;54794;48.348;7.878;2024-03-17T04:49:38;1.02;;;0.30;;
68010;SDS011;54794;48.348;7.878;2024-03-17T04:52:11;0.57;;;0.30;;
68010;SDS011;54794;48.348;7.878;2024-03-17T04:54:38;0.82;;;0.40;;
68010;SDS011;54794;48.348;7.878;2024-03-17T04:57:06;1.13;;;0.85;;
68010;SDS011;54794;48.348;7.878;2024-03-17T04:59:33;0.98;;;0.82;;
68010;SDS011;54794;48.348;7.878;2024-03-17T05:02:00;0.73;;;0.50;;
68010;SDS011;54794;48.348;7.878;2024-03-17T05:04:27;0.73;;;0.63;;
68010;SDS011;54794;48.348;7.878;2024-03-17T05:06:54;0.95;;;0.70;;
68010;SDS011;54794;48.348;7.878;2024-03-17T05:09:20;0.70;;;0.50;;
68010;SDS011;54794;48.348;7.878;2024-03-17T05:11:46;1.42;;;0.70;;
68010;SDS011;54794;48.348;7.878;2024-03-17T05:14:15;1.92;;;0.85;;
68010;SDS011;54794;48.348;7.878;2024-03-17T05:16:41;0.85;;;0.45;;
68010;SDS011;54794;48.348;7.878;2024-03-17T05:19:06;1.00;;;0.70;;
68010;SDS011;54794;48.348;7.878;2024-03-17T05:24:03;1.05;;;0.65;;
68010;SDS011;54794;48.348;7.878;2024-03-17T05:26:29;0.88;;;0.63;;
68010;SDS011;54794;48.348;7.878;2024-03-17T05:28:56;1.40;;;0.68;;
68010;SDS011;54794;48.348;7.878;2024-03-17T05:31:22;1.00;;;0.50;;
68010;SDS011;54794;48.348;7.878;2024-03-17T05:33:48;1.08;;;0.57;;
68010;SDS011;54794;48.348;7.878;2024-03-17T05:36:14;0.90;;;0.50;;
68010;SDS011;54794;48.348;7.878;2024-03-17T05:38:41;1.07;;;0.30;;
68010;SDS011;54794;48.348;7.878;2024-03-17T05:41:08;0.73;;;0.43;;
68010;SDS011;54794;48.348;7.878;2024-03-17T05:43:35;1.77;;;0.55;;
68010;SDS011;54794;48.348;7.878;2024-03-17T05:46:06;0.28;;;0.28;;
68010;SDS011;54794;48.348;7.878;2024-03-17T05:48:34;0.65;;;0.45;;
68010;SDS011;54794;48.348;7.878;2024-03-17T05:51:05;0.73;;;0.40;;
68010;SDS011;54794;48.348;7.878;2024-03-17T05:53:36;0.50;;;0.40;;
68010;SDS011;54794;48.348;7.878;2024-03-17T05:56:09;0.88;;;0.50;;
68010;SDS011;54794;48.348;7.878;2024-03-17T05:58:41;2.83;;;0.40;;
68010;SDS011;54794;48.348;7.878;2024-03-17T06:01:10;0.43;;;0.30;;
68010;SDS011;54794;48.348;7.878;2024-03-17T06:03:37;0.77;;;0.35;;
68010;SDS011;54794;48.348;7.878;2024-03-17T06:06:03;1.60;;;0.50;;
68010;SDS011;54794;48.348;7.878;2024-03-17T06:08:38;0.50;;;0.50;;
68010;SDS011;54794;48.348;7.878;2024-03-17T06:11:04;0.85;;;0.52;;
68010;SDS011;54794;48.348;7.878;2024-03-17T06:13:31;1.23;;;0.40;;
68010;SDS011;54794;48.348;7.878;2024-03-17T06:15:57;2.00;;;0.60;;
68010;SDS011;54794;48.348;7.878;2024-03-17T06:18:26;0.63;;;0.40;;
68010;SDS011;54794;48.348;7.878;2024-03-17T06:20:52;1.02;;;0.40;;
68010;SDS011;54794;48.348;7.878;2024-03-17T06:23:19;3.30;;;0.50;;
68010;SDS011;54794;48.348;7.878;2024-03-17T06:25:46;1.00;;;0.57;;
68010;SDS011;54794;48.348;7.878;2024-03-17T06:28:14;1.20;;;0.40;;
68010;SDS011;54794;48.348;7.878;2024-03-17T06:30:45;0.55;;;0.30;;
68010;SDS011;54794;48.348;7.878;2024-03-17T06:33:21;0.40;;;0.30;;
68010;SDS011;54794;48.348;7.878;2024-03-17T06:35:50;0.38;;;0.38;;
68010;SDS011;54794;48.348;7.878;2024-03-17T06:38:16;0.60;;;0.50;;
68010;SDS011;54794;48.348;7.878;2024-03-17T06:40:47;0.52;;;0.40;;
68010;SDS011;54794;48.348;7.878;2024-03-17T06:43:15;0.65;;;0.30;;
68010;SDS011;54794;48.348;7.878;2024-03-17T06:45:41;0.52;;;0.30;;
68010;SDS011;54794;48.348;7.878;2024-03-17T06:48:07;0.68;;;0.40;;
68010;SDS011;54794;48.348;7.878;2024-03-17T06:50:33;0.52;;;0.50;;
68010;SDS011;54794;48.348;7.878;2024-03-17T06:52:59;0.50;;;0.35;;
68010;SDS011;54794;48.348;7.878;2024-03-17T06:55:25;1.90;;;0.43;;
68010;SDS011;54794;48.348;7.878;2024-03-17T06:57:51;1.38;;;0.43;;
68010;SDS011;54794;48.348;7.878;2024-03-17T07:00:17;1.13;;;0.63;;
68010;SDS011;54794;48.348;7.878;2024-03-17T07:02:43;0.50;;;0.40;;
68010;SDS011;54794;48.348;7.878;2024-03-17T07:05:13;0.93;;;0.43;;
68010;SDS011;54794;48.348;7.878;2024-03-17T07:07:42;0.80;;;0.40;;
68010;SDS011;54794;48.348;7.878;2024-03-17T07:10:09;0.60;;;0.50;;
68010;SDS011;54794;48.348;7.878;2024-03-17T07:12:37;1.20;;;0.40;;
68010;SDS011;54794;48.348;7.878;2024-03-17T07:15:04;0.75;;;0.63;;
68010;SDS011;54794;48.348;7.878;2024-03-17T07:17:30;1.35;;;0.80;;
68010;SDS011;54794;48.348;7.878;2024-03-17T07:19:57;3.13;;;0.90;;
68010;SDS011;54794;48.348;7.878;2024-03-17T07:22:23;0.98;;;0.80;;
68010;SDS011;54794;48.348;7.878;2024-03-17T07:24:52;1.33;;;0.80;;
68010;SDS011;54794;48.348;7.878;2024-03-17T07:27:25;2.05;;;1.15;;
68010;SDS011;54794;48.348;7.878;2024-03-17T07:29:54;1.10;;;0.90;;
68010;SDS011;54794;48.348;7.878;2024-03-17T07:32:20;1.38;;;0.80;;
68010;SDS011;54794;48.348;7.878;2024-03-17T07:34:48;0.95;;;0.73;;
68010;SDS011;54794;48.348;7.878;2024-03-17T07:37:15;1.17;;;0.80;;
68010;SDS011;54794;48.348;7.878;2024-03-17T07:39:41;1.87;;;0.70;;
68010;SDS011;54794;48.348;7.878;2024-03-17T07:42:07;1.35;;;0.82;;
68010;SDS011;54794;48.348;7.878;2024-03-17T07:44:33;1.00;;;0.80;;
68010;SDS011;54794;48.348;7.878;2024-03-17T07:47:00;1.45;;;0.90;;
68010;SDS011;54794;48.348;7.878;2024-03-17T07:49:29;1.30;;;0.90;;
68010;SDS011;54794;48.348;7.878;2024-03-17T07:51:56;1.45;;;0.90;;
68010;SDS011;54794;48.348;7.878;2024-03-17T07:54:23;1.40;;;0.90;;
68010;SDS011;54794;48.348;7.878;2024-03-17T07:56:52;0.90;;;0.80;;
68010;SDS011;54794;48.348;7.878;2024-03-17T07:59:18;1.10;;;0.83;;
68010;SDS011;54794;48.348;7.878;2024-03-17T08:01:44;1.48;;;1.00;;
68010;SDS011;54794;48.348;7.878;2024-03-17T08:04:11;1.00;;;0.90;;
68010;SDS011;54794;48.348;7.878;2024-03-17T08:06:40;4.05;;;1.15;;
68010;SDS011;54794;48.348;7.878;2024-03-17T08:09:07;1.70;;;0.90;;
68010;SDS011;54794;48.348;7.878;2024-03-17T08:11:37;1.50;;;1.05;;
68010;SDS011;54794;48.348;7.878;2024-03-17T08:14:04;1.30;;;0.90;;
68010;SDS011;54794;48.348;7.878;2024-03-17T08:16:31;1.35;;;1.20;;
68010;SDS011;54794;48.348;7.878;2024-03-17T08:18:57;1.23;;;0.93;;
68010;SDS011;54794;48.348;7.878;2024-03-17T08:21:23;1.63;;;1.10;;
68010;SDS011;54794;48.348;7.878;2024-03-17T08:23:49;1.25;;;1.08;;
68010;SDS011;54794;48.348;7.878;2024-03-17T08:26:15;1.35;;;0.88;;
68010;SDS011;54794;48.348;7.878;2024-03-17T08:28:41;1.63;;;0.88;;
68010;SDS011;54794;48.348;7.878;2024-03-17T08:31:07;0.85;;;0.70;;
68010;SDS011;54794;48.348;7.878;2024-03-17T08:33:33;1.15;;;0.70;;
68010;SDS011;54794;48.348;7.878;2024-03-17T08:36:03;1.80;;;0.80;;
68010;SDS011;54794;48.348;7.878;2024-03-17T08:38:35;0.90;;;0.63;;
68010;SDS011;54794;48.348;7.878;2024-03-17T08:41:03;1.98;;;1.00;;
68010;SDS011;54794;48.348;7.878;2024-03-17T08:43:31;1.40;;;0.88;;
68010;SDS011;54794;48.348;7.878;2024-03-17T08:46:02;1.52;;;1.00;;
68010;SDS011;54794;48.348;7.878;2024-03-17T08:48:34;1.63;;;1.23;;
68010;SDS011;54794;48.348;7.878;2024-03-17T08:51:02;1.60;;;1.10;;
68010;SDS011;54794;48.348;7.878;2024-03-17T08:53:31;1.98;;;1.30;;
68010;SDS011;54794;48.348;7.878;2024-03-17T08:55:57;1.38;;;1.00;;
68010;SDS011;54794;48.348;7.878;2024-03-17T08:58:25;3.25;;;1.30;;
68010;SDS011;54794;48.348;7.878;2024-03-17T09:00:52;1.98;;;1.30;;
68010;SDS011;54794;48.348;7.878;2024-03-17T09:03:18;1.98;;;1.40;;
68010;SDS011;54794;48.348;7.878;2024-03-17T09:05:47;8.93;;;4.50;;
68010;SDS011;54794;48.348;7.878;2024-03-17T09:08:17;8.57;;;4.53;;
68010;SDS011;54794;48.348;7.878;2024-03-17T09:10:49;3.95;;;2.70;;
68010;SDS011;54794;48.348;7.878;2024-03-17T09:13:21;3.20;;;1.83;;
68010;SDS011;54794;48.348;7.878;2024-03-17T09:15:52;2.83;;;1.60;;
68010;SDS011;54794;48.348;7.878;2024-03-17T09:18:33;1.53;;;1.30;;
68010;SDS011;54794;48.348;7.878;2024-03-17T09:21:01;2.08;;;1.48;;
68010;SDS011;54794;48.348;7.878;2024-03-17T09:23:30;3.03;;;1.73;;
68010;SDS011;54794;48.348;7.878;2024-03-17T09:25:59;2.50;;;1.85;;
68010;SDS011;54794;48.348;7.878;2024-03-17T09:28:28;2.45;;;1.83;;
68010;SDS011;54794;48.348;7.878;2024-03-17T09:30:55;2.50;;;1.95;;
68010;SDS011;54794;48.348;7.878;2024-03-17T09:38:24;2.50;;;1.65;;
68010;SDS011;54794;48.348;7.878;2024-03-17T09:40:50;2.13;;;1.77;;
68010;SDS011;54794;48.348;7.878;2024-03-17T09:43:18;1.60;;;1.30;;
68010;SDS011;54794;48.348;7.878;2024-03-17T09:45:46;3.08;;;1.55;;
68010;SDS011;54794;48.348;7.878;2024-03-17T09:50:52;1.77;;;1.23;;
68010;SDS011;54794;48.348;7.878;2024-03-17T09:53:22;2.78;;;1.60;;
68010;SDS011;54794;48.348;7.878;2024-03-17T09:55:57;1.73;;;1.05;;
68010;SDS011;54794;48.348;7.878;2024-03-17T10:00:50;2.05;;;1.20;;
68010;SDS011;54794;48.348;7.878;2024-03-17T10:06:15;1.98;;;1.52;;
68010;SDS011;54794;48.348;7.878;2024-03-17T10:08:42;3.22;;;1.63;;
68010;SDS011;54794;48.348;7.878;2024-03-17T10:11:14;2.45;;;1.65;;
68010;SDS011;54794;48.348;7.878;2024-03-17T10:13:43;2.28;;;1.50;;
68010;SDS011;54794;48.348;7.878;2024-03-17T10:16:20;3.03;;;1.38;;
68010;SDS011;54794;48.348;7.878;2024-03-17T10:19:07;2.20;;;1.45;;
68010;SDS011;54794;48.348;7.878;2024-03-17T10:21:40;2.95;;;1.40;;
68010;SDS011;54794;48.348;7.878;2024-03-17T10:24:09;2.00;;;1.45;;
68010;SDS011;54794;48.348;7.878;2024-03-17T10:26:37;2.35;;;1.20;;
68010;SDS011;54794;48.348;7.878;2024-03-17T10:29:23;1.80;;;1.20;;
68010;SDS011;54794;48.348;7.878;2024-03-17T10:32:12;3.45;;;1.70;;
68010;SDS011;54794;48.348;7.878;2024-03-17T10:34:41;2.05;;;1.25;;
68010;SDS011;54794;48.348;7.878;2024-03-17T10:37:13;1.95;;;1.35;;
68010;SDS011;54794;48.348;7.878;2024-03-17T10:39:48;3.33;;;1.38;;
68010;SDS011;54794;48.348;7.878;2024-03-17T10:42:26;3.08;;;1.17;;
68010;SDS011;54794;48.348;7.878;2024-03-17T10:44:54;3.38;;;1.30;;
68010;SDS011;54794;48.348;7.878;2024-03-17T10:47:22;2.30;;;1.17;;
68010;SDS011;54794;48.348;7.878;2024-03-17T10:49:54;1.58;;;1.30;;
68010;SDS011;54794;48.348;7.878;2024-03-17T10:52:22;2.30;;;1.60;;
68010;SDS011;54794;48.348;7.878;2024-03-17T10:54:53;1.58;;;1.35;;
68010;SDS011;54794;48.348;7.878;2024-03-17T10:59:58;3.03;;;1.42;;
68010;SDS011;54794;48.348;7.878;2024-03-17T11:02:26;2.35;;;1.40;;
68010;SDS011;54794;48.348;7.878;2024-03-17T11:04:58;1.70;;;1.08;;
68010;SDS011;54794;48.348;7.878;2024-03-17T11:07:26;3.40;;;2.00;;
68010;SDS011;54794;48.348;7.878;2024-03-17T11:09:53;4.38;;;2.15;;
68010;SDS011;54794;48.348;7.878;2024-03-17T11:17:48;1.95;;;1.40;;
68010;SDS011;54794;48.348;7.878;2024-03-17T11:20:23;2.58;;;1.63;;
68010;SDS011;54794;48.348;7.878;2024-03-17T11:22:57;3.38;;;1.83;;
68010;SDS011;54794;48.348;7.878;2024-03-17T11:27:57;2.38;;;1.40;;
68010;SDS011;54794;48.348;7.878;2024-03-17T11:41:46;2.88;;;1.70;;
68010;SDS011;54794;48.348;7.878;2024-03-17T11:49:30;2.00;;;1.25;;
68010;SDS011;54794;48.348;7.878;2024-03-17T11:52:00;4.95;;;1.98;;
68010;SDS011;54794;48.348;7.878;2024-03-17T11:54:34;2.15;;;1.65;;
68010;SDS011;54794;48.348;7.878;2024-03-17T11:57:02;1.70;;;1.10;;
68010;SDS011;54794;48.348;7.878;2024-03-17T11:59:38;2.05;;;1.35;;
68010;SDS011;54794;48.348;7.878;2024-03-17T12:04:45;1.77;;;0.90;;
68010;SDS011;54794;48.348;7.878;2024-03-17T12:07:12;1.73;;;0.93;;
68010;SDS011;54794;48.348;7.878;2024-03-17T12:09:41;1.60;;;1.20;;
68010;SDS011;54794;48.348;7.878;2024-03-17T12:12:09;2.58;;;1.10;;
68010;SDS011;54794;48.348;7.878;2024-03-17T12:14:42;1.45;;;1.00;;
68010;SDS011;54794;48.348;7.878;2024-03-17T12:17:08;3.42;;;1.40;;
68010;SDS011;54794;48.348;7.878;2024-03-17T12:19:37;2.72;;;1.23;;
68010;SDS011;54794;48.348;7.878;2024-03-17T12:22:04;2.35;;;1.20;;
68010;SDS011;54794;48.348;7.878;2024-03-17T12:24:35;2.22;;;1.50;;
68010;SDS011;54794;48.348;7.878;2024-03-17T12:27:05;2.10;;;1.10;;
68010;SDS011;54794;48.348;7.878;2024-03-17T12:29:32;1.83;;;1.02;;
68010;SDS011;54794;48.348;7.878;2024-03-17T12:32:06;1.80;;;0.82;;
68010;SDS011;54794;48.348;7.878;2024-03-17T12:34:38;2.88;;;1.20;;
68010;SDS011;54794;48.348;7.878;2024-03-17T12:37:05;1.97;;;1.10;;
68010;SDS011;54794;48.348;7.878;2024-03-17T12:39:31;1.67;;;1.10;;
68010;SDS011;54794;48.348;7.878;2024-03-17T12:42:13;2.08;;;1.10;;
68010;SDS011;54794;48.348;7.878;2024-03-17T12:44:50;1.65;;;1.33;;
68010;SDS011;54794;48.348;7.878;2024-03-17T12:47:27;1.92;;;1.10;;
68010;SDS011;54794;48.348;7.878;2024-03-17T12:49:55;3.65;;;1.60;;
68010;SDS011;54794;48.348;7.878;2024-03-17T12:57:47;1.85;;;1.02;;
68010;SDS011;54794;48.348;7.878;2024-03-17T13:00:34;2.33;;;1.00;;
68010;SDS011;54794;48.348;7.878;2024-03-17T13:03:01;3.65;;;1.40;;
68010;SDS011;54794;48.348;7.878;2024-03-17T13:05:31;2.15;;;1.30;;
68010;SDS011;54794;48.348;7.878;2024-03-17T13:07:58;0.90;;;0.63;;
68010;SDS011;54794;48.348;7.878;2024-03-17T13:10:25;1.55;;;1.00;;
68010;SDS011;54794;48.348;7.878;2024-03-17T13:12:58;1.65;;;1.08;;
68010;SDS011;54794;48.348;7.878;2024-03-17T13:15:29;1.65;;;0.98;;
68010;SDS011;54794;48.348;7.878;2024-03-17T13:18:01;2.67;;;0.90;;
68010;SDS011;54794;48.348;7.878;2024-03-17T13:20:29;1.88;;;1.15;;
68010;SDS011;54794;48.348;7.878;2024-03-17T13:22:59;0.95;;;0.80;;
68010;SDS011;54794;48.348;7.878;2024-03-17T13:25:29;1.67;;;1.00;;
68010;SDS011;54794;48.348;7.878;2024-03-17T13:28:00;1.75;;;0.80;;
68010;SDS011;54794;48.348;7.878;2024-03-17T13:30:26;2.03;;;1.13;;
68010;SDS011;54794;48.348;7.878;2024-03-17T13:32:54;2.38;;;1.10;;
68010;SDS011;54794;48.348;7.878;2024-03-17T13:35:24;2.53;;;1.13;;
68010;SDS011;54794;48.348;7.878;2024-03-17T13:37:54;2.33;;;1.13;;
68010;SDS011;54794;48.348;7.878;2024-03-17T13:40:21;2.17;;;0.90;;
68010;SDS011;54794;48.348;7.878;2024-03-17T13:42:49;2.58;;;1.00;;
68010;SDS011;54794;48.348;7.878;2024-03-17T13:45:17;2.08;;;1.00;;
68010;SDS011;54794;48.348;7.878;2024-03-17T13:47:50;1.73;;;1.02;;
68010;SDS011;54794;48.348;7.878;2024-03-17T13:50:22;1.95;;;1.10;;
68010;SDS011;54794;48.348;7.878;2024-03-17T13:52:48;2.60;;;1.00;;
68010;SDS011;54794;48.348;7.878;2024-03-17T13:55:22;1.80;;;0.90;;
68010;SDS011;54794;48.348;7.878;2024-03-17T13:57:53;1.87;;;0.80;;
68010;SDS011;54794;48.348;7.878;2024-03-17T14:00:22;2.20;;;1.00;;
68010;SDS011;54794;48.348;7.878;2024-03-17T14:02:50;1.77;;;1.13;;
68010;SDS011;54794;48.348;7.878;2024-03-17T14:05:19;2.95;;;1.05;;
68010;SDS011;54794;48.348;7.878;2024-03-17T14:07:54;1.05;;;0.68;;
68010;SDS011;54794;48.348;7.878;2024-03-17T14:10:23;2.13;;;0.80;;
68010;SDS011;54794;48.348;7.878;2024-03-17T14:12:50;1.45;;;0.95;;
68010;SDS011;54794;48.348;7.878;2024-03-17T14:15:16;3.00;;;0.90;;
68010;SDS011;54794;48.348;7.878;2024-03-17T14:17:46;1.35;;;0.88;;
68010;SDS011;54794;48.348;7.878;2024-03-17T14:20:14;2.15;;;0.90;;
68010;SDS011;54794;48.348;7.878;2024-03-17T14:22:43;2.53;;;1.00;;
68010;SDS011;54794;48.348;7.878;2024-03-17T14:25:18;1.45;;;0.77;;
68010;SDS011;54794;48.348;7.878;2024-03-17T14:27:44;1.67;;;0.70;;
68010;SDS011;54794;48.348;7.878;2024-03-17T14:30:18;1.63;;;0.88;;
68010;SDS011;54794;48.348;7.878;2024-03-17T14:32:45;2.08;;;0.82;;
68010;SDS011;54794;48.348;7.878;2024-03-17T14:37:40;1.65;;;0.80;;
68010;SDS011;54794;48.348;7.878;2024-03-17T14:40:08;2.20;;;0.70;;
68010;SDS011;54794;48.348;7.878;2024-03-17T14:42:42;1.52;;;1.00;;
68010;SDS011;54794;48.348;7.878;2024-03-17T14:45:08;2.80;;;0.90;;
68010;SDS011;54794;48.348;7.878;2024-03-17T14:47:36;3.10;;;0.90;;
68010;SDS011;54794;48.348;7.878;2024-03-17T14:50:02;2.80;;;1.10;;
68010;SDS011;54794;48.348;7.878;2024-03-17T14:52:28;2.67;;;0.77;;
68010;SDS011;54794;48.348;7.878;2024-03-17T14:54:54;2.70;;;1.20;;
68010;SDS011;54794;48.348;7.878;2024-03-17T14:57:22;2.45;;;0.75;;
68010;SDS011;54794;48.348;7.878;2024-03-17T14:59:48;1.75;;;0.80;;
68010;SDS011;54794;48.348;7.878;2024-03-17T15:02:13;1.52;;;0.80;;
68010;SDS011;54794;48.348;7.878;2024-03-17T15:04:40;1.95;;;1.00;;
68010;SDS011;54794;48.348;7.878;2024-03-17T15:07:08;1.95;;;1.02;;
68010;SDS011;54794;48.348;7.878;2024-03-17T15:09:34;1.58;;;0.85;;
68010;SDS011;54794;48.348;7.878;2024-03-17T15:12:00;3.20;;;1.10;;
68010;SDS011;54794;48.348;7.878;2024-03-17T15:16:54;1.42;;;0.60;;
68010;SDS011;54794;48.348;7.878;2024-03-17T15:19:20;3.00;;;1.13;;
68010;SDS011;54794;48.348;7.878;2024-03-17T15:21:45;1.95;;;0.80;;
68010;SDS011;54794;48.348;7.878;2024-03-17T15:24:11;1.70;;;0.88;;
68010;SDS011;54794;48.348;7.878;2024-03-17T15:26:38;1.07;;;0.60;;
68010;SDS011;54794;48.348;7.878;2024-03-17T15:29:04;5.75;;;3.05;;
68010;SDS011;54794;48.348;7.878;2024-03-17T15:31:30;3.40;;;1.50;;
68010;SDS011;54794;48.348;7.878;2024-03-17T15:33:56;2.47;;;1.25;;
68010;SDS011;54794;48.348;7.878;2024-03-17T15:36:22;1.75;;;1.00;;
68010;SDS011;54794;48.348;7.878;2024-03-17T15:38:51;2.15;;;1.10;;
68010;SDS011;54794;48.348;7.878;2024-03-17T15:41:17;2.95;;;1.00;;
68010;SDS011;54794;48.348;7.878;2024-03-17T15:43:43;2.83;;;1.17;;
68010;SDS011;54794;48.348;7.878;2024-03-17T15:46:14;1.58;;;1.05;;
68010;SDS011;54794;48.348;7.878;2024-03-17T15:48:43;1.65;;;0.77;;
68010;SDS011;54794;48.348;7.878;2024-03-17T15:51:11;1.98;;;0.82;;
68010;SDS011;54794;48.348;7.878;2024-03-17T15:53:38;1.67;;;0.70;;
68010;SDS011;54794;48.348;7.878;2024-03-17T15:56:04;1.35;;;0.65;;
68010;SDS011;54794;48.348;7.878;2024-03-17T15:58:31;1.80;;;0.90;;